sensor_id;sensor_type;location;lat;lon;timestamp;temperature;humidity
24250;DHT22;12379;49.820;8.648;2023-06-04T00:00:27;16.30;64.00
24250;DHT22;12379;49.820;8.648;2023-06-04T00:02:53;16.50;63.30
24250;DHT22;12379;49.820;8.648;2023-06-04T00:05:18;16.40;63.60
24250;DHT22;12379;49.820;8.648;2023-06-04T00:07:44;16.30;63.90
24250;DHT22;12379;49.820;8.648;2023-06-04T00:10:10;16.20;64.00
24250;DHT22;12379;49.820;8.648;2023-06-04T00:12:36;16.00;64.10
24250;DHT22;12379;49.820;8.648;2023-06-04T00:15:02;16.00;64.30
24250;DHT22;12379;49.820;8.648;2023-06-04T00:17:28;15.90;64.80
24250;DHT22;12379;49.820;8.648;2023-06-04T00:19:54;16.00;64.60
24250;DHT22;12379;49.820;8.648;2023-06-04T00:22:19;16.00;63.60
24250;DHT22;12379;49.820;8.648;2023-06-04T00:24:45;16.00;63.40
24250;DHT22;12379;49.820;8.648;2023-06-04T00:27:11;16.00;63.40
24250;DHT22;12379;49.820;8.648;2023-06-04T00:29:36;15.90;63.70
24250;DHT22;12379;49.820;8.648;2023-06-04T00:32:03;15.80;63.70
24250;DHT22;12379;49.820;8.648;2023-06-04T00:34:28;15.80;63.90
24250;DHT22;12379;49.820;8.648;2023-06-04T00:36:54;15.90;63.50
24250;DHT22;12379;49.820;8.648;2023-06-04T00:39:22;15.80;63.30
24250;DHT22;12379;49.820;8.648;2023-06-04T00:41:48;15.80;63.70
24250;DHT22;12379;49.820;8.648;2023-06-04T00:44:13;15.70;63.50
24250;DHT22;12379;49.820;8.648;2023-06-04T00:46:39;15.70;63.60
24250;DHT22;12379;49.820;8.648;2023-06-04T00:49:05;15.80;63.40
24250;DHT22;12379;49.820;8.648;2023-06-04T00:51:32;15.70;63.40
24250;DHT22;12379;49.820;8.648;2023-06-04T00:54:04;15.70;63.40
24250;DHT22;12379;49.820;8.648;2023-06-04T00:56:35;15.70;63.20
24250;DHT22;12379;49.820;8.648;2023-06-04T00:59:03;15.80;63.10
24250;DHT22;12379;49.820;8.648;2023-06-04T01:04:14;15.70;62.90
24250;DHT22;12379;49.820;8.648;2023-06-04T01:06:49;15.60;62.80
24250;DHT22;12379;49.820;8.648;2023-06-04T01:09:15;15.70;62.40
24250;DHT22;12379;49.820;8.648;2023-06-04T01:11:41;15.60;62.60
24250;DHT22;12379;49.820;8.648;2023-06-04T01:14:09;15.60;62.70
24250;DHT22;12379;49.820;8.648;2023-06-04T01:16:49;15.60;62.40
24250;DHT22;12379;49.820;8.648;2023-06-04T01:22:42;15.60;62.30
24250;DHT22;12379;49.820;8.648;2023-06-04T01:25:14;15.60;62.30
24250;DHT22;12379;49.820;8.648;2023-06-04T01:27:50;15.60;62.40
24250;DHT22;12379;49.820;8.648;2023-06-04T01:30:21;15.40;62.60
24250;DHT22;12379;49.820;8.648;2023-06-04T01:32:48;15.30;63.20
24250;DHT22;12379;49.820;8.648;2023-06-04T01:35:14;15.20;63.60
24250;DHT22;12379;49.820;8.648;2023-06-04T01:37:40;15.20;63.90
24250;DHT22;12379;49.820;8.648;2023-06-04T01:40:06;15.10;64.10
24250;DHT22;12379;49.820;8.648;2023-06-04T01:42:34;15.10;63.80
24250;DHT22;12379;49.820;8.648;2023-06-04T01:45:00;15.00;64.10
24250;DHT22;12379;49.820;8.648;2023-06-04T01:47:26;15.00;63.80
24250;DHT22;12379;49.820;8.648;2023-06-04T01:49:54;14.90;64.10
24250;DHT22;12379;49.820;8.648;2023-06-04T01:52:29;14.90;64.40
24250;DHT22;12379;49.820;8.648;2023-06-04T01:54:55;14.90;64.10
24250;DHT22;12379;49.820;8.648;2023-06-04T01:57:21;14.90;64.10
24250;DHT22;12379;49.820;8.648;2023-06-04T01:59:48;14.80;64.20
24250;DHT22;12379;49.820;8.648;2023-06-04T02:02:14;14.80;64.70
24250;DHT22;12379;49.820;8.648;2023-06-04T02:04:40;14.80;64.40
24250;DHT22;12379;49.820;8.648;2023-06-04T02:07:11;14.80;64.60
24250;DHT22;12379;49.820;8.648;2023-06-04T02:09:39;14.80;64.70
24250;DHT22;12379;49.820;8.648;2023-06-04T02:12:05;14.70;64.60
24250;DHT22;12379;49.820;8.648;2023-06-04T02:14:31;14.80;64.50
24250;DHT22;12379;49.820;8.648;2023-06-04T02:16:57;14.70;64.90
24250;DHT22;12379;49.820;8.648;2023-06-04T02:19:26;14.60;65.50
24250;DHT22;12379;49.820;8.648;2023-06-04T02:21:55;14.50;66.10
24250;DHT22;12379;49.820;8.648;2023-06-04T02:24:21;14.40;66.40
24250;DHT22;12379;49.820;8.648;2023-06-04T02:26:47;14.30;66.60
24250;DHT22;12379;49.820;8.648;2023-06-04T02:29:13;14.30;67.00
24250;DHT22;12379;49.820;8.648;2023-06-04T02:31:38;14.20;67.00
24250;DHT22;12379;49.820;8.648;2023-06-04T02:34:04;14.20;67.10
24250;DHT22;12379;49.820;8.648;2023-06-04T02:36:29;14.10;67.30
24250;DHT22;12379;49.820;8.648;2023-06-04T02:38:55;14.10;68.30
24250;DHT22;12379;49.820;8.648;2023-06-04T02:41:21;14.10;67.70
24250;DHT22;12379;49.820;8.648;2023-06-04T02:43:47;14.10;68.10
24250;DHT22;12379;49.820;8.648;2023-06-04T02:46:13;14.10;68.10
24250;DHT22;12379;49.820;8.648;2023-06-04T02:48:39;14.00;68.20
24250;DHT22;12379;49.820;8.648;2023-06-04T02:51:04;14.10;68.20
24250;DHT22;12379;49.820;8.648;2023-06-04T02:53:30;14.10;68.10
24250;DHT22;12379;49.820;8.648;2023-06-04T02:55:56;14.00;68.80
24250;DHT22;12379;49.820;8.648;2023-06-04T02:58:22;14.00;68.80
24250;DHT22;12379;49.820;8.648;2023-06-04T03:00:52;14.00;68.70
24250;DHT22;12379;49.820;8.648;2023-06-04T03:03:17;13.90;69.30
24250;DHT22;12379;49.820;8.648;2023-06-04T03:05:43;13.80;69.60
24250;DHT22;12379;49.820;8.648;2023-06-04T03:08:11;13.90;69.60
24250;DHT22;12379;49.820;8.648;2023-06-04T03:10:37;13.90;69.10
24250;DHT22;12379;49.820;8.648;2023-06-04T03:13:03;13.90;69.90
24250;DHT22;12379;49.820;8.648;2023-06-04T03:15:29;13.80;70.00
24250;DHT22;12379;49.820;8.648;2023-06-04T03:17:54;13.80;70.30
24250;DHT22;12379;49.820;8.648;2023-06-04T03:20:20;13.80;70.10
24250;DHT22;12379;49.820;8.648;2023-06-04T03:22:50;13.90;69.90
24250;DHT22;12379;49.820;8.648;2023-06-04T03:25:16;13.80;69.90
24250;DHT22;12379;49.820;8.648;2023-06-04T03:27:41;13.80;70.20
24250;DHT22;12379;49.820;8.648;2023-06-04T03:30:07;13.90;69.70
24250;DHT22;12379;49.820;8.648;2023-06-04T03:32:33;13.80;70.00
24250;DHT22;12379;49.820;8.648;2023-06-04T03:35:00;13.70;70.40
24250;DHT22;12379;49.820;8.648;2023-06-04T03:37:25;13.70;71.20
24250;DHT22;12379;49.820;8.648;2023-06-04T03:39:52;13.70;71.40
24250;DHT22;12379;49.820;8.648;2023-06-04T03:42:18;13.70;71.30
24250;DHT22;12379;49.820;8.648;2023-06-04T03:44:44;13.80;71.10
24250;DHT22;12379;49.820;8.648;2023-06-04T03:47:10;13.80;70.50
24250;DHT22;12379;49.820;8.648;2023-06-04T03:49:35;13.80;71.30
24250;DHT22;12379;49.820;8.648;2023-06-04T03:52:01;13.80;71.80
24250;DHT22;12379;49.820;8.648;2023-06-04T03:54:26;13.80;76.20
24250;DHT22;12379;49.820;8.648;2023-06-04T03:56:52;13.90;74.30
24250;DHT22;12379;49.820;8.648;2023-06-04T03:59:17;13.90;71.70
24250;DHT22;12379;49.820;8.648;2023-06-04T04:01:43;13.90;75.90
24250;DHT22;12379;49.820;8.648;2023-06-04T04:04:09;13.90;71.90
24250;DHT22;12379;49.820;8.648;2023-06-04T04:06:35;13.90;74.90
24250;DHT22;12379;49.820;8.648;2023-06-04T04:09:03;13.90;76.60
24250;DHT22;12379;49.820;8.648;2023-06-04T04:11:30;14.00;76.00
24250;DHT22;12379;49.820;8.648;2023-06-04T04:13:56;14.10;75.50
24250;DHT22;12379;49.820;8.648;2023-06-04T04:16:22;13.90;75.50
24250;DHT22;12379;49.820;8.648;2023-06-04T04:18:47;13.90;74.30
24250;DHT22;12379;49.820;8.648;2023-06-04T04:21:13;14.10;79.40
24250;DHT22;12379;49.820;8.648;2023-06-04T04:23:39;14.10;79.90
24250;DHT22;12379;49.820;8.648;2023-06-04T04:26:08;14.10;76.50
24250;DHT22;12379;49.820;8.648;2023-06-04T04:28:33;14.20;76.10
24250;DHT22;12379;49.820;8.648;2023-06-04T04:31:00;14.30;74.40
24250;DHT22;12379;49.820;8.648;2023-06-04T04:33:28;14.20;79.00
24250;DHT22;12379;49.820;8.648;2023-06-04T04:35:58;14.30;79.20
24250;DHT22;12379;49.820;8.648;2023-06-04T04:38:25;14.30;80.20
24250;DHT22;12379;49.820;8.648;2023-06-04T04:40:54;14.30;76.10
24250;DHT22;12379;49.820;8.648;2023-06-04T04:43:35;14.30;76.90
24250;DHT22;12379;49.820;8.648;2023-06-04T04:46:00;14.20;77.50
24250;DHT22;12379;49.820;8.648;2023-06-04T04:48:26;14.20;78.90
24250;DHT22;12379;49.820;8.648;2023-06-04T04:50:52;14.30;80.70
24250;DHT22;12379;49.820;8.648;2023-06-04T04:53:18;14.40;77.60
24250;DHT22;12379;49.820;8.648;2023-06-04T04:55:44;14.40;78.80
24250;DHT22;12379;49.820;8.648;2023-06-04T04:58:09;14.50;77.50
24250;DHT22;12379;49.820;8.648;2023-06-04T05:00:35;14.50;77.20
24250;DHT22;12379;49.820;8.648;2023-06-04T05:03:01;14.70;76.60
24250;DHT22;12379;49.820;8.648;2023-06-04T05:05:26;14.80;75.70
24250;DHT22;12379;49.820;8.648;2023-06-04T05:07:52;14.80;75.40
24250;DHT22;12379;49.820;8.648;2023-06-04T05:10:18;14.70;78.10
24250;DHT22;12379;49.820;8.648;2023-06-04T05:12:54;14.70;80.90
24250;DHT22;12379;49.820;8.648;2023-06-04T05:15:20;14.80;79.10
24250;DHT22;12379;49.820;8.648;2023-06-04T05:17:46;14.90;77.80
24250;DHT22;12379;49.820;8.648;2023-06-04T05:20:13;14.90;80.60
24250;DHT22;12379;49.820;8.648;2023-06-04T05:22:39;14.90;77.80
24250;DHT22;12379;49.820;8.648;2023-06-04T05:25:05;15.00;77.20
24250;DHT22;12379;49.820;8.648;2023-06-04T05:27:34;15.10;78.20
24250;DHT22;12379;49.820;8.648;2023-06-04T05:30:01;15.20;77.40
24250;DHT22;12379;49.820;8.648;2023-06-04T05:32:27;15.30;79.10
24250;DHT22;12379;49.820;8.648;2023-06-04T05:34:57;15.40;77.10
24250;DHT22;12379;49.820;8.648;2023-06-04T05:37:25;15.40;79.00
24250;DHT22;12379;49.820;8.648;2023-06-04T05:39:52;15.70;76.20
24250;DHT22;12379;49.820;8.648;2023-06-04T05:42:18;16.20;75.30
24250;DHT22;12379;49.820;8.648;2023-06-04T05:44:44;16.50;73.80
24250;DHT22;12379;49.820;8.648;2023-06-04T05:47:11;16.50;75.70
24250;DHT22;12379;49.820;8.648;2023-06-04T05:49:36;16.50;74.90
24250;DHT22;12379;49.820;8.648;2023-06-04T05:52:02;16.80;73.20
24250;DHT22;12379;49.820;8.648;2023-06-04T05:54:29;17.50;71.50
24250;DHT22;12379;49.820;8.648;2023-06-04T05:56:55;18.30;69.40
24250;DHT22;12379;49.820;8.648;2023-06-04T05:59:21;19.10;69.70
24250;DHT22;12379;49.820;8.648;2023-06-04T06:01:46;19.80;64.30
24250;DHT22;12379;49.820;8.648;2023-06-04T06:04:13;20.50;63.20
24250;DHT22;12379;49.820;8.648;2023-06-04T06:06:39;20.90;62.30
24250;DHT22;12379;49.820;8.648;2023-06-04T06:09:04;21.00;61.20
24250;DHT22;12379;49.820;8.648;2023-06-04T06:11:31;21.60;59.80
24250;DHT22;12379;49.820;8.648;2023-06-04T06:13:56;21.30;59.30
24250;DHT22;12379;49.820;8.648;2023-06-04T06:16:22;21.20;59.10
24250;DHT22;12379;49.820;8.648;2023-06-04T06:18:47;21.00;58.70
24250;DHT22;12379;49.820;8.648;2023-06-04T06:21:13;21.60;59.80
24250;DHT22;12379;49.820;8.648;2023-06-04T06:23:38;22.10;58.50
24250;DHT22;12379;49.820;8.648;2023-06-04T06:26:04;22.80;57.50
24250;DHT22;12379;49.820;8.648;2023-06-04T06:28:33;22.70;59.10
24250;DHT22;12379;49.820;8.648;2023-06-04T06:30:59;22.50;58.30
24250;DHT22;12379;49.820;8.648;2023-06-04T06:33:24;22.80;56.40
24250;DHT22;12379;49.820;8.648;2023-06-04T06:35:50;23.00;55.20
24250;DHT22;12379;49.820;8.648;2023-06-04T06:38:15;23.50;57.50
24250;DHT22;12379;49.820;8.648;2023-06-04T06:40:41;24.10;53.30
24250;DHT22;12379;49.820;8.648;2023-06-04T06:43:06;24.10;53.50
24250;DHT22;12379;49.820;8.648;2023-06-04T06:45:32;24.60;52.20
24250;DHT22;12379;49.820;8.648;2023-06-04T06:47:57;24.80;51.90
24250;DHT22;12379;49.820;8.648;2023-06-04T06:50:23;25.10;50.60
24250;DHT22;12379;49.820;8.648;2023-06-04T06:52:49;25.10;51.00
24250;DHT22;12379;49.820;8.648;2023-06-04T06:55:15;25.00;48.80
24250;DHT22;12379;49.820;8.648;2023-06-04T06:57:40;24.80;50.10
24250;DHT22;12379;49.820;8.648;2023-06-04T07:00:07;24.70;50.10
24250;DHT22;12379;49.820;8.648;2023-06-04T07:02:33;24.40;48.80
24250;DHT22;12379;49.820;8.648;2023-06-04T07:04:58;24.10;49.20
24250;DHT22;12379;49.820;8.648;2023-06-04T07:07:24;24.30;48.90
24250;DHT22;12379;49.820;8.648;2023-06-04T07:09:49;25.20;45.50
24250;DHT22;12379;49.820;8.648;2023-06-04T07:12:15;24.70;47.40
24250;DHT22;12379;49.820;8.648;2023-06-04T07:14:41;24.60;47.80
24250;DHT22;12379;49.820;8.648;2023-06-04T07:17:07;24.60;47.50
24250;DHT22;12379;49.820;8.648;2023-06-04T07:19:33;24.90;48.40
24250;DHT22;12379;49.820;8.648;2023-06-04T07:21:58;25.90;46.50
24250;DHT22;12379;49.820;8.648;2023-06-04T07:24:24;25.90;44.80
24250;DHT22;12379;49.820;8.648;2023-06-04T07:26:50;25.30;46.00
24250;DHT22;12379;49.820;8.648;2023-06-04T07:29:16;25.20;46.30
24250;DHT22;12379;49.820;8.648;2023-06-04T07:31:41;25.10;45.80
24250;DHT22;12379;49.820;8.648;2023-06-04T07:34:07;24.90;48.30
24250;DHT22;12379;49.820;8.648;2023-06-04T07:36:33;25.10;48.10
24250;DHT22;12379;49.820;8.648;2023-06-04T07:38:59;24.80;47.30
24250;DHT22;12379;49.820;8.648;2023-06-04T07:41:25;25.50;47.60
24250;DHT22;12379;49.820;8.648;2023-06-04T07:43:51;25.80;46.80
24250;DHT22;12379;49.820;8.648;2023-06-04T07:46:17;26.10;46.70
24250;DHT22;12379;49.820;8.648;2023-06-04T07:48:44;25.60;46.30
24250;DHT22;12379;49.820;8.648;2023-06-04T07:51:10;25.10;46.60
24250;DHT22;12379;49.820;8.648;2023-06-04T07:53:37;24.80;45.90
24250;DHT22;12379;49.820;8.648;2023-06-04T07:56:03;24.20;47.30
24250;DHT22;12379;49.820;8.648;2023-06-04T07:58:29;24.20;48.60
24250;DHT22;12379;49.820;8.648;2023-06-04T08:00:54;24.50;49.30
24250;DHT22;12379;49.820;8.648;2023-06-04T08:03:20;25.30;47.90
24250;DHT22;12379;49.820;8.648;2023-06-04T08:05:46;25.40;48.10
24250;DHT22;12379;49.820;8.648;2023-06-04T08:08:12;25.50;47.20
24250;DHT22;12379;49.820;8.648;2023-06-04T08:10:39;25.40;46.50
24250;DHT22;12379;49.820;8.648;2023-06-04T08:13:05;25.30;47.70
24250;DHT22;12379;49.820;8.648;2023-06-04T08:15:30;25.60;49.60
24250;DHT22;12379;49.820;8.648;2023-06-04T08:17:56;25.70;48.40
24250;DHT22;12379;49.820;8.648;2023-06-04T08:20:21;25.70;47.50
24250;DHT22;12379;49.820;8.648;2023-06-04T08:22:50;26.10;48.00
24250;DHT22;12379;49.820;8.648;2023-06-04T08:25:16;25.70;46.50
24250;DHT22;12379;49.820;8.648;2023-06-04T08:27:46;25.90;46.30
24250;DHT22;12379;49.820;8.648;2023-06-04T08:30:12;26.00;46.70
24250;DHT22;12379;49.820;8.648;2023-06-04T08:32:38;25.70;46.90
24250;DHT22;12379;49.820;8.648;2023-06-04T08:35:03;25.20;48.70
24250;DHT22;12379;49.820;8.648;2023-06-04T08:37:30;25.70;47.50
24250;DHT22;12379;49.820;8.648;2023-06-04T08:39:55;25.90;46.50
24250;DHT22;12379;49.820;8.648;2023-06-04T08:42:31;25.70;47.10
24250;DHT22;12379;49.820;8.648;2023-06-04T08:44:58;25.80;47.80
24250;DHT22;12379;49.820;8.648;2023-06-04T08:47:29;25.70;46.60
24250;DHT22;12379;49.820;8.648;2023-06-04T08:49:56;25.60;47.70
24250;DHT22;12379;49.820;8.648;2023-06-04T08:52:24;25.70;47.70
24250;DHT22;12379;49.820;8.648;2023-06-04T08:54:51;25.70;47.10
24250;DHT22;12379;49.820;8.648;2023-06-04T08:57:18;25.90;49.10
24250;DHT22;12379;49.820;8.648;2023-06-04T08:59:47;25.60;46.50
24250;DHT22;12379;49.820;8.648;2023-06-04T09:02:16;26.00;47.20
24250;DHT22;12379;49.820;8.648;2023-06-04T09:04:42;25.70;46.30
24250;DHT22;12379;49.820;8.648;2023-06-04T09:07:11;26.20;47.40
24250;DHT22;12379;49.820;8.648;2023-06-04T09:09:39;26.80;45.30
24250;DHT22;12379;49.820;8.648;2023-06-04T09:12:10;27.10;45.00
24250;DHT22;12379;49.820;8.648;2023-06-04T09:14:36;26.80;44.10
24250;DHT22;12379;49.820;8.648;2023-06-04T09:17:01;26.90;45.10
24250;DHT22;12379;49.820;8.648;2023-06-04T09:19:30;27.00;44.10
24250;DHT22;12379;49.820;8.648;2023-06-04T09:21:57;27.00;43.60
24250;DHT22;12379;49.820;8.648;2023-06-04T09:27:12;27.20;43.30
24250;DHT22;12379;49.820;8.648;2023-06-04T09:29:52;27.00;44.30
24250;DHT22;12379;49.820;8.648;2023-06-04T09:32:25;26.60;43.70
24250;DHT22;12379;49.820;8.648;2023-06-04T09:34:52;26.00;44.80
24250;DHT22;12379;49.820;8.648;2023-06-04T09:37:18;26.70;42.70
24250;DHT22;12379;49.820;8.648;2023-06-04T09:39:54;26.60;42.90
24250;DHT22;12379;49.820;8.648;2023-06-04T09:42:20;26.50;43.10
24250;DHT22;12379;49.820;8.648;2023-06-04T09:44:46;26.30;43.40
24250;DHT22;12379;49.820;8.648;2023-06-04T09:47:12;26.40;44.40
24250;DHT22;12379;49.820;8.648;2023-06-04T09:49:42;26.40;45.00
24250;DHT22;12379;49.820;8.648;2023-06-04T09:52:08;26.80;43.60
24250;DHT22;12379;49.820;8.648;2023-06-04T09:54:38;26.90;42.50
24250;DHT22;12379;49.820;8.648;2023-06-04T09:57:18;26.80;42.90
24250;DHT22;12379;49.820;8.648;2023-06-04T09:59:49;26.80;42.50
24250;DHT22;12379;49.820;8.648;2023-06-04T10:02:20;26.90;40.40
24250;DHT22;12379;49.820;8.648;2023-06-04T10:04:55;26.70;42.70
24250;DHT22;12379;49.820;8.648;2023-06-04T10:07:25;26.10;44.00
24250;DHT22;12379;49.820;8.648;2023-06-04T10:09:52;26.20;43.80
24250;DHT22;12379;49.820;8.648;2023-06-04T10:12:25;26.40;44.00
24250;DHT22;12379;49.820;8.648;2023-06-04T10:15:02;26.50;43.00
24250;DHT22;12379;49.820;8.648;2023-06-04T10:17:31;25.90;43.20
24250;DHT22;12379;49.820;8.648;2023-06-04T10:20:00;25.40;43.90
24250;DHT22;12379;49.820;8.648;2023-06-04T10:22:28;25.50;43.90
24250;DHT22;12379;49.820;8.648;2023-06-04T10:25:01;25.40;42.10
24250;DHT22;12379;49.820;8.648;2023-06-04T10:27:27;25.20;41.90
24250;DHT22;12379;49.820;8.648;2023-06-04T10:29:54;24.40;41.70
24250;DHT22;12379;49.820;8.648;2023-06-04T10:32:19;24.00;41.60
24250;DHT22;12379;49.820;8.648;2023-06-04T10:34:46;23.60;44.60
24250;DHT22;12379;49.820;8.648;2023-06-04T10:37:20;23.30;42.50
24250;DHT22;12379;49.820;8.648;2023-06-04T10:39:54;23.00;43.00
24250;DHT22;12379;49.820;8.648;2023-06-04T10:42:21;23.00;43.50
24250;DHT22;12379;49.820;8.648;2023-06-04T10:44:52;23.00;45.50
24250;DHT22;12379;49.820;8.648;2023-06-04T10:47:27;22.90;45.70
24250;DHT22;12379;49.820;8.648;2023-06-04T10:50:07;23.10;45.90
24250;DHT22;12379;49.820;8.648;2023-06-04T10:52:34;23.50;45.40
24250;DHT22;12379;49.820;8.648;2023-06-04T10:55:09;24.00;44.30
24250;DHT22;12379;49.820;8.648;2023-06-04T10:57:35;23.80;44.00
24250;DHT22;12379;49.820;8.648;2023-06-04T11:00:02;24.10;45.10
24250;DHT22;12379;49.820;8.648;2023-06-04T11:02:31;24.40;43.80
24250;DHT22;12379;49.820;8.648;2023-06-04T11:05:04;24.40;44.10
24250;DHT22;12379;49.820;8.648;2023-06-04T11:07:45;24.50;43.90
24250;DHT22;12379;49.820;8.648;2023-06-04T11:10:12;24.20;43.30
24250;DHT22;12379;49.820;8.648;2023-06-04T11:12:49;23.90;44.80
24250;DHT22;12379;49.820;8.648;2023-06-04T11:15:18;23.70;45.00
24250;DHT22;12379;49.820;8.648;2023-06-04T11:17:54;23.60;45.00
24250;DHT22;12379;49.820;8.648;2023-06-04T11:20:21;23.50;44.60
24250;DHT22;12379;49.820;8.648;2023-06-04T11:25:17;23.40;45.70
24250;DHT22;12379;49.820;8.648;2023-06-04T11:27:42;23.60;45.70
24250;DHT22;12379;49.820;8.648;2023-06-04T11:30:08;23.60;44.10
24250;DHT22;12379;49.820;8.648;2023-06-04T11:32:34;23.50;44.40
24250;DHT22;12379;49.820;8.648;2023-06-04T11:35:06;23.40;44.40
24250;DHT22;12379;49.820;8.648;2023-06-04T11:37:32;23.60;44.80
24250;DHT22;12379;49.820;8.648;2023-06-04T11:39:58;23.70;45.80
24250;DHT22;12379;49.820;8.648;2023-06-04T11:42:27;24.00;43.30
24250;DHT22;12379;49.820;8.648;2023-06-04T11:44:56;23.80;43.50
24250;DHT22;12379;49.820;8.648;2023-06-04T11:47:23;23.60;45.20
24250;DHT22;12379;49.820;8.648;2023-06-04T11:49:56;23.60;45.30
24250;DHT22;12379;49.820;8.648;2023-06-04T11:52:22;23.70;45.00
24250;DHT22;12379;49.820;8.648;2023-06-04T11:54:49;23.70;45.70
24250;DHT22;12379;49.820;8.648;2023-06-04T11:57:15;24.00;44.00
24250;DHT22;12379;49.820;8.648;2023-06-04T11:59:40;23.80;44.50
24250;DHT22;12379;49.820;8.648;2023-06-04T12:02:07;23.80;43.60
24250;DHT22;12379;49.820;8.648;2023-06-04T12:04:33;23.90;44.00
24250;DHT22;12379;49.820;8.648;2023-06-04T12:07:00;23.80;43.40
24250;DHT22;12379;49.820;8.648;2023-06-04T12:09:31;23.80;42.40
24250;DHT22;12379;49.820;8.648;2023-06-04T12:12:00;23.60;43.20
24250;DHT22;12379;49.820;8.648;2023-06-04T12:14:27;23.90;43.60
24250;DHT22;12379;49.820;8.648;2023-06-04T12:16:57;24.10;43.30
24250;DHT22;12379;49.820;8.648;2023-06-04T12:19:23;24.30;43.30
24250;DHT22;12379;49.820;8.648;2023-06-04T12:22:03;24.10;42.80
24250;DHT22;12379;49.820;8.648;2023-06-04T12:24:29;23.90;42.00
24250;DHT22;12379;49.820;8.648;2023-06-04T12:27:06;24.00;41.80
24250;DHT22;12379;49.820;8.648;2023-06-04T12:29:32;23.90;43.30
24250;DHT22;12379;49.820;8.648;2023-06-04T12:32:08;24.10;42.50
24250;DHT22;12379;49.820;8.648;2023-06-04T12:34:35;24.40;43.30
24250;DHT22;12379;49.820;8.648;2023-06-04T12:37:01;24.50;41.80
24250;DHT22;12379;49.820;8.648;2023-06-04T12:39:28;24.30;41.40
24250;DHT22;12379;49.820;8.648;2023-06-04T12:41:55;24.30;40.30
24250;DHT22;12379;49.820;8.648;2023-06-04T12:44:20;24.40;41.30
24250;DHT22;12379;49.820;8.648;2023-06-04T12:46:46;24.20;41.20
24250;DHT22;12379;49.820;8.648;2023-06-04T12:49:12;24.30;40.80
24250;DHT22;12379;49.820;8.648;2023-06-04T12:51:37;24.10;41.00
24250;DHT22;12379;49.820;8.648;2023-06-04T12:54:04;24.00;40.70
24250;DHT22;12379;49.820;8.648;2023-06-04T12:56:30;24.10;40.70
24250;DHT22;12379;49.820;8.648;2023-06-04T12:58:56;24.00;40.30
24250;DHT22;12379;49.820;8.648;2023-06-04T13:01:21;24.20;41.10
24250;DHT22;12379;49.820;8.648;2023-06-04T13:03:47;24.20;39.70
24250;DHT22;12379;49.820;8.648;2023-06-04T13:06:13;24.30;40.30
24250;DHT22;12379;49.820;8.648;2023-06-04T13:08:39;24.30;39.60
24250;DHT22;12379;49.820;8.648;2023-06-04T13:11:05;24.40;39.70
24250;DHT22;12379;49.820;8.648;2023-06-04T13:13:31;24.30;40.40
24250;DHT22;12379;49.820;8.648;2023-06-04T13:15:57;24.20;40.50
24250;DHT22;12379;49.820;8.648;2023-06-04T13:18:23;24.00;40.10
24250;DHT22;12379;49.820;8.648;2023-06-04T13:20:49;24.00;40.40
24250;DHT22;12379;49.820;8.648;2023-06-04T13:23:15;24.10;40.40
24250;DHT22;12379;49.820;8.648;2023-06-04T13:25:40;24.10;41.10
24250;DHT22;12379;49.820;8.648;2023-06-04T13:28:06;24.40;39.50
24250;DHT22;12379;49.820;8.648;2023-06-04T13:30:37;24.60;41.30
24250;DHT22;12379;49.820;8.648;2023-06-04T13:33:07;24.60;41.10
24250;DHT22;12379;49.820;8.648;2023-06-04T13:35:32;24.60;41.60
24250;DHT22;12379;49.820;8.648;2023-06-04T13:37:58;24.60;40.80
24250;DHT22;12379;49.820;8.648;2023-06-04T13:40:24;24.50;41.00
24250;DHT22;12379;49.820;8.648;2023-06-04T13:42:49;24.70;42.50
24250;DHT22;12379;49.820;8.648;2023-06-04T13:45:15;24.90;42.30
24250;DHT22;12379;49.820;8.648;2023-06-04T13:47:42;25.00;39.70
24250;DHT22;12379;49.820;8.648;2023-06-04T13:50:08;24.80;39.40
24250;DHT22;12379;49.820;8.648;2023-06-04T13:52:34;24.90;40.00
24250;DHT22;12379;49.820;8.648;2023-06-04T13:54:59;25.10;39.70
24250;DHT22;12379;49.820;8.648;2023-06-04T13:57:25;25.20;39.00
24250;DHT22;12379;49.820;8.648;2023-06-04T13:59:51;24.80;39.60
24250;DHT22;12379;49.820;8.648;2023-06-04T14:02:17;24.80;40.50
24250;DHT22;12379;49.820;8.648;2023-06-04T14:04:42;24.50;40.50
24250;DHT22;12379;49.820;8.648;2023-06-04T14:07:08;24.70;42.00
24250;DHT22;12379;49.820;8.648;2023-06-04T14:09:34;24.80;41.40
24250;DHT22;12379;49.820;8.648;2023-06-04T14:12:01;24.90;41.90
24250;DHT22;12379;49.820;8.648;2023-06-04T14:14:27;24.90;40.90
24250;DHT22;12379;49.820;8.648;2023-06-04T14:16:54;25.00;40.90
24250;DHT22;12379;49.820;8.648;2023-06-04T14:19:21;25.10;41.00
24250;DHT22;12379;49.820;8.648;2023-06-04T14:21:46;24.90;41.70
24250;DHT22;12379;49.820;8.648;2023-06-04T14:24:12;24.80;41.30
24250;DHT22;12379;49.820;8.648;2023-06-04T14:26:38;24.80;40.50
24250;DHT22;12379;49.820;8.648;2023-06-04T14:29:03;24.90;40.70
24250;DHT22;12379;49.820;8.648;2023-06-04T14:31:29;25.00;39.70
24250;DHT22;12379;49.820;8.648;2023-06-04T14:33:54;25.10;39.60
24250;DHT22;12379;49.820;8.648;2023-06-04T14:36:20;25.20;40.30
24250;DHT22;12379;49.820;8.648;2023-06-04T14:38:46;25.30;40.40
24250;DHT22;12379;49.820;8.648;2023-06-04T14:41:13;25.40;40.60
24250;DHT22;12379;49.820;8.648;2023-06-04T14:43:38;25.40;39.60
24250;DHT22;12379;49.820;8.648;2023-06-04T14:46:04;25.40;38.80
24250;DHT22;12379;49.820;8.648;2023-06-04T14:48:30;25.40;39.20
24250;DHT22;12379;49.820;8.648;2023-06-04T14:50:55;25.70;37.80
24250;DHT22;12379;49.820;8.648;2023-06-04T14:53:21;25.80;37.90
24250;DHT22;12379;49.820;8.648;2023-06-04T14:55:47;25.70;37.60
24250;DHT22;12379;49.820;8.648;2023-06-04T14:58:13;25.40;37.70
24250;DHT22;12379;49.820;8.648;2023-06-04T15:00:39;25.00;37.50
24250;DHT22;12379;49.820;8.648;2023-06-04T15:03:05;25.00;39.80
24250;DHT22;12379;49.820;8.648;2023-06-04T15:05:34;25.30;38.00
24250;DHT22;12379;49.820;8.648;2023-06-04T15:08:00;25.20;38.20
24250;DHT22;12379;49.820;8.648;2023-06-04T15:10:26;25.20;38.70
24250;DHT22;12379;49.820;8.648;2023-06-04T15:12:52;25.40;39.50
24250;DHT22;12379;49.820;8.648;2023-06-04T15:15:18;25.50;38.10
24250;DHT22;12379;49.820;8.648;2023-06-04T15:17:44;25.70;38.70
24250;DHT22;12379;49.820;8.648;2023-06-04T15:20:10;25.50;37.30
24250;DHT22;12379;49.820;8.648;2023-06-04T15:22:35;25.60;38.10
24250;DHT22;12379;49.820;8.648;2023-06-04T15:25:01;25.90;37.50
24250;DHT22;12379;49.820;8.648;2023-06-04T15:27:26;25.70;38.20
24250;DHT22;12379;49.820;8.648;2023-06-04T15:29:52;25.70;38.50
24250;DHT22;12379;49.820;8.648;2023-06-04T15:32:18;25.60;38.00
24250;DHT22;12379;49.820;8.648;2023-06-04T15:34:43;25.60;38.30
24250;DHT22;12379;49.820;8.648;2023-06-04T15:37:09;25.40;38.80
24250;DHT22;12379;49.820;8.648;2023-06-04T15:39:34;25.10;39.30